Terminal Aerodrome Forecast
Issued by NWS

Home | Current Version | Previous Version | Text Only | Print | Product List | Glossary On
Versions: 1 2 3 4 5 6 7 8 9 10 11 12 13 14 15 16 17 18 19 20
000
FTUS43 KMQT 261131
TAFSAW
TAF
KSAW 261131Z 2612/2712 25006KT P6SM SKC
     FM261600 25006KT P6SM SCT060
     FM261900 25005KT P6SM VCTS BKN060CB
     FM262300 34003KT P6SM VCSH BKN060
     FM270200 00000KT P6SM SCT070=

USA.gov is the U.S. government's official web portal to all federal, state and local government web resources and services.